Time;durP1;ratioP1;P1;durP2;ratioP2;P2;SDS_P1;SDS_P2;PMS_P1;PMS_P2;Temp;Humidity;BMP_temperature;BMP_pressure;BME280_temperature;BME280_humidity;BME280_pressure;Samples;Min_cycle;Max_cycle;Signal;HPM_P1;HPM_P2
2023/10/19 00:01:17;;;;;;;23.90;10.70;;;;;;;;;;5099040;28;20027;-71
2023/10/19 00:03:44;;;;;;;17.95;10.45;;;;;;;;;;5093989;28;20367;-71
2023/10/19 00:06:11;;;;;;;17.88;10.38;;;;;;;;;;5100035;28;20028;-72
2023/10/19 00:08:46;;;;;;;18.60;10.60;;;;;;;;;;5092081;28;20382;-74
2023/10/19 00:11:23;;;;;;;18.92;11.48;;;;;;;;;;5091800;28;20487;-73
2023/10/19 00:13:57;;;;;;;20.85;11.18;;;;;;;;;;5092209;28;20093;-71
2023/10/19 00:16:28;;;;;;;23.00;11.98;;;;;;;;;;5091808;28;20093;-71
2023/10/19 00:18:59;;;;;;;24.63;11.93;;;;;;;;;;5092031;28;20020;-72
2023/10/19 00:21:25;;;;;;;22.33;11.05;;;;;;;;;;5091957;28;20111;-71
2023/10/19 00:23:55;;;;;;;20.75;11.77;;;;;;;;;;5091963;28;20087;-71
2023/10/19 00:26:24;;;;;;;22.33;11.27;;;;;;;;;;5091308;28;20391;-73
2023/10/19 00:28:53;;;;;;;24.25;12.18;;;;;;;;;;5091820;28;20099;-71
2023/10/19 00:31:22;;;;;;;26.63;11.48;;;;;;;;;;5091507;28;20356;-71
2023/10/19 00:33:51;;;;;;;20.50;11.77;;;;;;;;;;5092020;28;20056;-72
2023/10/19 00:36:20;;;;;;;21.80;11.90;;;;;;;;;;5092198;28;20339;-71
2023/10/19 00:41:22;;;;;;;23.08;12.35;;;;;;;;;;5091311;28;20024;-71
2023/10/19 00:43:57;;;;;;;29.67;13.18;;;;;;;;;;5091616;28;20045;-71
2023/10/19 00:46:31;;;;;;;24.05;12.80;;;;;;;;;;5091603;28;20035;-71
2023/10/19 00:49:00;;;;;;;25.10;13.25;;;;;;;;;;5092089;28;20458;-73
2023/10/19 00:54:10;;;;;;;21.75;12.55;;;;;;;;;;5091812;28;20503;-72
2023/10/19 00:56:36;;;;;;;25.52;12.35;;;;;;;;;;5092132;28;20391;-71
2023/10/19 00:59:14;;;;;;;22.45;12.45;;;;;;;;;;5091684;28;20024;-71
2023/10/19 01:01:50;;;;;;;21.52;12.65;;;;;;;;;;5091764;28;20030;-72
2023/10/19 01:04:31;;;;;;;22.55;12.45;;;;;;;;;;5092010;28;20023;-72
2023/10/19 01:07:00;;;;;;;20.73;13.07;;;;;;;;;;5091779;28;20039;-70
2023/10/19 01:09:27;;;;;;;22.55;13.40;;;;;;;;;;5091740;28;20122;-70
2023/10/19 01:11:53;;;;;;;20.33;11.60;;;;;;;;;;5091626;28;20028;-73
2023/10/19 01:14:21;;;;;;;25.80;12.02;;;;;;;;;;5091851;28;20030;-70
2023/10/19 01:16:49;;;;;;;23.45;12.50;;;;;;;;;;5091235;28;20133;-70
2023/10/19 01:19:18;;;;;;;21.48;12.18;;;;;;;;;;5091034;28;20396;-72
2023/10/19 01:21:51;;;;;;;21.27;12.57;;;;;;;;;;5090984;28;20023;-72
2023/10/19 01:24:20;;;;;;;22.60;12.63;;;;;;;;;;5089101;28;20017;-70
2023/10/19 01:26:47;;;;;;;28.23;11.88;;;;;;;;;;5091332;28;20031;-70
2023/10/19 01:29:16;;;;;;;21.15;12.00;;;;;;;;;;5090714;28;20391;-71
2023/10/19 01:31:55;;;;;;;23.05;12.32;;;;;;;;;;5090724;28;20114;-71
2023/10/19 01:34:21;;;;;;;21.95;11.82;;;;;;;;;;5090896;28;20028;-71
2023/10/19 01:36:50;;;;;;;20.33;11.70;;;;;;;;;;5091408;28;20483;-71
2023/10/19 01:39:18;;;;;;;26.70;12.38;;;;;;;;;;5094399;28;20028;-72
2023/10/19 01:41:45;;;;;;;20.48;11.50;;;;;;;;;;5096202;28;20048;-71
2023/10/19 01:44:15;;;;;;;25.17;11.85;;;;;;;;;;5095974;28;20355;-72
2023/10/19 01:46:43;;;;;;;27.67;12.15;;;;;;;;;;5096024;28;20023;-72
2023/10/19 01:49:10;;;;;;;25.92;12.60;;;;;;;;;;5095660;28;20475;-72
2023/10/19 01:51:39;;;;;;;20.25;12.00;;;;;;;;;;5095638;28;20032;-72
2023/10/19 01:54:06;;;;;;;25.98;11.93;;;;;;;;;;5105926;28;20070;-71
2023/10/19 01:56:35;;;;;;;24.98;12.82;;;;;;;;;;5101553;28;20059;-72
2023/10/19 01:59:01;;;;;;;18.83;11.38;;;;;;;;;;5095183;28;20020;-71
2023/10/19 02:03:55;;;;;;;19.85;12.35;;;;;;;;;;5098268;28;20028;-71
2023/10/19 02:06:26;;;;;;;21.92;12.60;;;;;;;;;;5099567;28;20517;-70
2023/10/19 02:11:45;;;;;;;25.75;12.45;;;;;;;;;;5099772;28;20032;-71
2023/10/19 02:14:14;;;;;;;22.75;13.15;;;;;;;;;;5096688;28;20447;-70
2023/10/19 02:16:43;;;;;;;25.67;12.15;;;;;;;;;;5095474;28;20028;-72
2023/10/19 02:19:10;;;;;;;23.60;12.60;;;;;;;;;;5096721;28;20027;-72
2023/10/19 02:21:42;;;;;;;25.38;13.32;;;;;;;;;;5098476;28;20055;-74
2023/10/19 02:24:08;;;;;;;26.30;12.27;;;;;;;;;;5100107;28;20016;-74
2023/10/19 02:26:35;;;;;;;32.70;13.27;;;;;;;;;;5098024;28;20020;-73
2023/10/19 02:29:07;;;;;;;26.83;13.18;;;;;;;;;;5109175;28;20017;-74
2023/10/19 02:31:33;;;;;;;22.52;13.27;;;;;;;;;;5104913;28;20028;-73
2023/10/19 02:33:59;;;;;;;22.15;12.70;;;;;;;;;;5100955;28;20188;-74
2023/10/19 02:36:29;;;;;;;30.25;14.48;;;;;;;;;;5088710;28;20043;-73
2023/10/19 02:38:59;;;;;;;28.10;13.32;;;;;;;;;;5115956;28;20028;-73
2023/10/19 02:41:26;;;;;;;27.33;13.25;;;;;;;;;;5111123;28;20024;-74
2023/10/19 02:46:50;;;;;;;26.27;14.38;;;;;;;;;;5067606;28;20032;-72
2023/10/19 02:49:20;;;;;;;23.15;13.20;;;;;;;;;;5074716;28;20023;-71
2023/10/19 02:51:47;;;;;;;32.42;14.18;;;;;;;;;;5092774;28;20040;-72
2023/10/19 02:54:20;;;;;;;24.30;13.20;;;;;;;;;;5094818;28;20086;-72
2023/10/19 02:56:49;;;;;;;21.30;13.02;;;;;;;;;;5076607;28;20024;-72
2023/10/19 02:59:15;;;;;;;23.38;13.80;;;;;;;;;;5094613;28;20074;-73
2023/10/19 03:01:44;;;;;;;24.20;14.65;;;;;;;;;;5095140;28;20024;-72
2023/10/19 03:04:12;;;;;;;28.08;14.13;;;;;;;;;;5094757;28;20050;-72
2023/10/19 03:06:40;;;;;;;25.42;13.43;;;;;;;;;;5095218;28;20501;-71
2023/10/19 03:09:22;;;;;;;23.45;13.63;;;;;;;;;;5094973;28;20054;-71
2023/10/19 03:11:52;;;;;;;26.13;13.95;;;;;;;;;;5094923;28;20499;-72
2023/10/19 03:14:18;;;;;;;30.30;14.18;;;;;;;;;;5094380;28;20032;-72
2023/10/19 03:16:45;;;;;;;25.38;13.98;;;;;;;;;;5094098;28;20032;-71
2023/10/19 03:19:12;;;;;;;26.95;14.23;;;;;;;;;;5093967;28;20020;-72
2023/10/19 03:21:42;;;;;;;27.30;13.35;;;;;;;;;;5094027;28;20028;-71
2023/10/19 03:24:59;;;;;;;28.38;13.82;;;;;;;;;;5094256;28;20036;-71
2023/10/19 03:27:00;;;;;;;34.25;14.35;;;;;;;;;;5082937;28;20507;-71
2023/10/19 03:29:31;;;;;;;26.77;13.93;;;;;;;;;;5094255;28;20042;-72
2023/10/19 03:31:58;;;;;;;25.08;14.05;;;;;;;;;;5093754;28;20032;-71
2023/10/19 03:34:25;;;;;;;23.58;13.82;;;;;;;;;;5093005;28;20024;-73
2023/10/19 03:36:51;;;;;;;31.27;14.68;;;;;;;;;;5092958;28;20510;-72
2023/10/19 03:39:17;;;;;;;24.13;14.00;;;;;;;;;;5092967;28;20017;-73
2023/10/19 03:41:44;;;;;;;28.95;13.73;;;;;;;;;;5075011;28;20016;-73
2023/10/19 03:44:20;;;;;;;29.75;13.57;;;;;;;;;;5075054;28;20027;-71
2023/10/19 03:47:03;;;;;;;26.30;13.45;;;;;;;;;;5094891;28;20047;-70
2023/10/19 03:49:38;;;;;;;34.90;14.70;;;;;;;;;;5093953;28;20100;-71
2023/10/19 03:54:40;;;;;;;27.00;13.60;;;;;;;;;;5092607;28;20028;-70
2023/10/19 03:57:11;;;;;;;27.80;14.32;;;;;;;;;;5092462;28;20035;-72
2023/10/19 03:59:37;;;;;;;28.70;13.63;;;;;;;;;;5073927;28;20101;-72
2023/10/19 04:02:13;;;;;;;33.50;14.38;;;;;;;;;;5093351;28;20020;-72
2023/10/19 04:04:43;;;;;;;29.70;14.10;;;;;;;;;;5060342;28;20028;-72
2023/10/19 04:07:31;;;;;;;27.50;13.98;;;;;;;;;;5092795;28;20036;-75
2023/10/19 04:12:37;;;;;;;26.42;15.07;;;;;;;;;;5086052;28;20036;-72
2023/10/19 04:15:16;;;;;;;31.02;15.90;;;;;;;;;;5098336;28;20028;-71
2023/10/19 04:17:43;;;;;;;27.10;16.25;;;;;;;;;;5100523;28;20024;-72
2023/10/19 04:22:49;;;;;;;31.85;16.95;;;;;;;;;;5113394;28;20031;-73
2023/10/19 04:25:25;;;;;;;28.08;16.30;;;;;;;;;;5113398;28;20019;-71
2023/10/19 04:27:51;;;;;;;25.98;15.35;;;;;;;;;;5113004;28;20563;-72
2023/10/19 04:30:21;;;;;;;26.33;15.95;;;;;;;;;;5112797;28;20386;-72
2023/10/19 04:32:48;;;;;;;32.88;16.42;;;;;;;;;;5112602;28;20028;-72
2023/10/19 04:35:14;;;;;;;26.92;16.23;;;;;;;;;;5112783;28;20088;-73
2023/10/19 04:37:42;;;;;;;32.38;16.90;;;;;;;;;;5112721;28;20027;-73
2023/10/19 04:40:09;;;;;;;29.05;16.60;;;;;;;;;;5112376;28;20020;-73
2023/10/19 04:42:36;;;;;;;31.92;16.35;;;;;;;;;;5113281;28;20035;-72
2023/10/19 04:45:02;;;;;;;30.98;16.25;;;;;;;;;;5091273;28;20074;-74
2023/10/19 04:47:28;;;;;;;30.67;16.98;;;;;;;;;;5096929;28;20050;-75
2023/10/19 04:49:55;;;;;;;37.08;17.08;;;;;;;;;;5094888;28;20503;-75
2023/10/19 04:52:21;;;;;;;28.42;16.65;;;;;;;;;;5092437;28;20042;-72
2023/10/19 04:54:47;;;;;;;29.38;16.70;;;;;;;;;;5103453;28;20094;-71
2023/10/19 04:57:13;;;;;;;37.28;17.73;;;;;;;;;;5112363;28;20099;-72
2023/10/19 04:59:39;;;;;;;32.40;17.17;;;;;;;;;;5112329;28;20035;-73
2023/10/19 05:02:05;;;;;;;28.88;16.85;;;;;;;;;;5112255;28;20368;-73
2023/10/19 05:04:31;;;;;;;32.67;18.17;;;;;;;;;;5112012;28;20093;-74
2023/10/19 05:06:57;;;;;;;36.55;16.73;;;;;;;;;;5111903;28;20482;-73
2023/10/19 05:09:24;;;;;;;34.85;17.77;;;;;;;;;;5112124;28;20106;-72
2023/10/19 05:11:52;;;;;;;28.35;16.42;;;;;;;;;;5112721;28;20469;-72
2023/10/19 05:14:18;;;;;;;34.83;18.52;;;;;;;;;;5111902;28;20016;-72
2023/10/19 05:16:44;;;;;;;32.78;17.80;;;;;;;;;;5112024;28;20076;-72
2023/10/19 05:19:10;;;;;;;34.28;16.88;;;;;;;;;;5112071;28;20024;-73
2023/10/19 05:21:36;;;;;;;30.27;17.45;;;;;;;;;;5112282;28;20015;-72
2023/10/19 05:24:02;;;;;;;37.38;18.92;;;;;;;;;;5112224;28;20045;-72
2023/10/19 05:26:28;;;;;;;37.75;18.60;;;;;;;;;;5112125;28;20020;-72
2023/10/19 05:28:54;;;;;;;34.28;18.10;;;;;;;;;;5094483;28;20012;-70
2023/10/19 05:31:20;;;;;;;31.70;17.77;;;;;;;;;;5092115;28;20368;-72
2023/10/19 05:33:48;;;;;;;37.00;18.35;;;;;;;;;;5091420;28;20078;-75
2023/10/19 05:36:14;;;;;;;32.38;17.65;;;;;;;;;;5093218;28;20020;-73
2023/10/19 05:38:41;;;;;;;32.85;18.15;;;;;;;;;;5078837;28;20063;-71
2023/10/19 05:41:07;;;;;;;32.20;18.90;;;;;;;;;;5091395;28;20605;-73
2023/10/19 05:43:34;;;;;;;33.75;18.40;;;;;;;;;;5091282;28;20379;-71
2023/10/19 05:46:00;;;;;;;32.78;17.83;;;;;;;;;;5093872;28;20077;-70
2023/10/19 05:48:26;;;;;;;36.00;19.75;;;;;;;;;;5088744;28;20032;-73
2023/10/19 05:50:52;;;;;;;31.27;17.85;;;;;;;;;;5096780;28;20502;-73
2023/10/19 05:53:18;;;;;;;33.95;18.55;;;;;;;;;;5091234;28;20035;-71
2023/10/19 05:55:45;;;;;;;34.72;18.48;;;;;;;;;;5096758;28;20022;-72
2023/10/19 05:58:11;;;;;;;39.00;19.30;;;;;;;;;;5083063;28;20036;-72
2023/10/19 06:00:38;;;;;;;29.55;17.83;;;;;;;;;;5098294;28;20110;-73
2023/10/19 06:03:04;;;;;;;30.77;17.52;;;;;;;;;;5096691;28;20360;-71
2023/10/19 06:05:30;;;;;;;34.72;18.73;;;;;;;;;;5086320;28;20024;-73
2023/10/19 06:07:59;;;;;;;34.28;19.13;;;;;;;;;;5090694;28;20077;-72
2023/10/19 06:10:25;;;;;;;32.83;19.20;;;;;;;;;;5102366;28;20091;-73
2023/10/19 06:12:52;;;;;;;37.50;18.80;;;;;;;;;;5111767;28;20547;-71
2023/10/19 06:15:20;;;;;;;37.72;19.75;;;;;;;;;;5112512;28;20102;-71
2023/10/19 06:17:47;;;;;;;34.40;18.77;;;;;;;;;;5112036;28;20024;-73
2023/10/19 06:20:19;;;;;;;34.80;19.23;;;;;;;;;;5111586;28;20398;-73
2023/10/19 06:22:51;;;;;;;39.60;18.60;;;;;;;;;;5113424;28;20031;-73
2023/10/19 06:25:18;;;;;;;37.28;19.02;;;;;;;;;;5115824;28;20023;-72
2023/10/19 06:27:44;;;;;;;37.55;19.85;;;;;;;;;;5117696;28;20027;-72
2023/10/19 06:30:11;;;;;;;37.90;19.35;;;;;;;;;;5099995;28;20038;-73
2023/10/19 06:32:37;;;;;;;36.92;18.90;;;;;;;;;;5115915;28;20032;-73
2023/10/19 06:35:03;;;;;;;37.22;18.98;;;;;;;;;;5117506;28;20128;-74
2023/10/19 06:37:29;;;;;;;36.58;19.48;;;;;;;;;;5119120;28;20127;-72
2023/10/19 06:39:55;;;;;;;38.08;18.23;;;;;;;;;;5117669;28;20031;-73
2023/10/19 06:42:21;;;;;;;32.92;18.95;;;;;;;;;;5118213;28;20023;-72
2023/10/19 06:44:50;;;;;;;31.67;18.45;;;;;;;;;;5115867;28;20015;-71
2023/10/19 06:47:16;;;;;;;33.65;19.30;;;;;;;;;;5118162;28;20091;-72
2023/10/19 06:49:42;;;;;;;33.28;18.10;;;;;;;;;;5120338;28;20020;-73
2023/10/19 06:52:11;;;;;;;30.67;17.75;;;;;;;;;;5116863;28;20498;-74
2023/10/19 06:54:37;;;;;;;35.10;18.38;;;;;;;;;;5120355;28;20016;-74
2023/10/19 06:57:03;;;;;;;34.22;18.17;;;;;;;;;;5116121;28;20126;-75
2023/10/19 06:59:29;;;;;;;33.78;17.75;;;;;;;;;;5114868;28;20025;-76
2023/10/19 07:01:55;;;;;;;31.98;18.77;;;;;;;;;;5115422;28;20582;-73
2023/10/19 07:04:21;;;;;;;38.30;18.05;;;;;;;;;;5115191;28;20115;-74
2023/10/19 07:06:49;;;;;;;34.20;18.20;;;;;;;;;;5114538;28;20030;-74
2023/10/19 07:09:15;;;;;;;42.97;20.90;;;;;;;;;;5116715;28;20047;-73
2023/10/19 07:11:44;;;;;;;33.72;18.02;;;;;;;;;;5101961;28;20028;-73
2023/10/19 07:14:10;;;;;;;34.92;19.27;;;;;;;;;;5098015;28;20024;-72
2023/10/19 07:16:38;;;;;;;34.25;19.05;;;;;;;;;;5094963;28;20313;-73
2023/10/19 07:19:05;;;;;;;32.47;19.08;;;;;;;;;;5094515;28;20099;-74
2023/10/19 07:21:35;;;;;;;41.15;18.80;;;;;;;;;;5092912;28;20471;-74
2023/10/19 07:24:05;;;;;;;36.50;18.67;;;;;;;;;;5093811;28;20038;-74
2023/10/19 07:26:33;;;;;;;30.85;18.55;;;;;;;;;;5093667;28;20020;-73
2023/10/19 07:28:59;;;;;;;35.45;18.85;;;;;;;;;;5093677;28;20502;-73
2023/10/19 07:31:27;;;;;;;35.30;19.15;;;;;;;;;;5093584;28;20075;-73
2023/10/19 07:33:57;;;;;;;30.33;17.83;;;;;;;;;;5093676;28;20035;-73
2023/10/19 07:36:24;;;;;;;33.67;18.23;;;;;;;;;;5092311;28;20016;-73
2023/10/19 07:38:51;;;;;;;33.35;18.48;;;;;;;;;;5093642;28;20039;-76
2023/10/19 07:41:17;;;;;;;32.50;19.05;;;;;;;;;;5094511;28;20012;-75
2023/10/19 07:43:44;;;;;;;35.75;19.02;;;;;;;;;;5094505;28;20031;-74
2023/10/19 07:46:11;;;;;;;36.15;18.77;;;;;;;;;;5093620;28;20460;-74
2023/10/19 07:48:38;;;;;;;35.20;19.33;;;;;;;;;;5094057;28;20089;-75
2023/10/19 07:51:04;;;;;;;40.28;19.65;;;;;;;;;;5093683;28;20012;-75
2023/10/19 07:53:30;;;;;;;41.88;20.08;;;;;;;;;;5094427;28;20024;-76
2023/10/19 07:55:57;;;;;;;32.25;19.13;;;;;;;;;;5093986;28;20028;-73
2023/10/19 07:58:23;;;;;;;35.35;19.92;;;;;;;;;;5092915;28;20035;-74
2023/10/19 08:00:49;;;;;;;39.15;19.35;;;;;;;;;;5096884;28;20024;-78
2023/10/19 08:03:16;;;;;;;35.95;20.60;;;;;;;;;;5095103;28;20095;-76
2023/10/19 08:05:42;;;;;;;38.47;20.02;;;;;;;;;;5093274;28;20027;-75
2023/10/19 08:08:08;;;;;;;37.38;19.80;;;;;;;;;;5093184;28;20016;-74
2023/10/19 08:10:34;;;;;;;40.70;21.55;;;;;;;;;;5092687;28;20016;-75
2023/10/19 08:13:01;;;;;;;38.08;20.10;;;;;;;;;;5092849;28;20020;-75
2023/10/19 08:15:30;;;;;;;38.53;20.05;;;;;;;;;;5093924;28;20012;-77
2023/10/19 08:17:56;;;;;;;37.97;20.25;;;;;;;;;;5093687;28;20464;-76
2023/10/19 08:20:31;;;;;;;34.58;20.67;;;;;;;;;;5094687;28;20041;-73
2023/10/19 08:22:57;;;;;;;39.83;20.13;;;;;;;;;;5098532;28;20028;-73
2023/10/19 08:25:26;;;;;;;36.83;20.08;;;;;;;;;;5098241;28;20031;-73
2023/10/19 08:27:56;;;;;;;36.75;20.27;;;;;;;;;;5094054;28;20024;-74
2023/10/19 08:30:23;;;;;;;39.60;20.35;;;;;;;;;;5094010;28;20376;-74
2023/10/19 08:32:49;;;;;;;40.92;19.60;;;;;;;;;;5094703;28;20067;-74
2023/10/19 08:35:18;;;;;;;39.75;19.75;;;;;;;;;;5093072;28;20035;-74
2023/10/19 08:37:46;;;;;;;34.63;19.10;;;;;;;;;;5092530;28;20016;-75
2023/10/19 08:40:15;;;;;;;41.97;22.08;;;;;;;;;;5092528;28;20030;-77
2023/10/19 08:42:48;;;;;;;39.63;21.27;;;;;;;;;;5091930;28;20016;-75
2023/10/19 08:45:14;;;;;;;46.22;24.90;;;;;;;;;;5092248;28;20016;-74
2023/10/19 08:47:56;;;;;;;34.28;21.30;;;;;;;;;;5091437;28;20035;-73
2023/10/19 08:50:24;;;;;;;40.10;21.13;;;;;;;;;;5093618;28;20078;-76
2023/10/19 08:52:52;;;;;;;40.35;22.33;;;;;;;;;;5098183;28;20032;-75
2023/10/19 08:55:19;;;;;;;50.30;21.70;;;;;;;;;;5095663;28;20180;-75
2023/10/19 08:57:45;;;;;;;50.25;21.92;;;;;;;;;;5097144;28;20035;-75
2023/10/19 09:00:12;;;;;;;39.97;22.42;;;;;;;;;;5099231;28;20107;-74
2023/10/19 09:02:38;;;;;;;41.47;22.30;;;;;;;;;;5095173;28;20023;-74
2023/10/19 09:05:07;;;;;;;39.72;22.83;;;;;;;;;;5092111;28;20096;-74
2023/10/19 09:07:34;;;;;;;39.72;21.92;;;;;;;;;;5092158;28;20024;-75
2023/10/19 09:10:01;;;;;;;41.47;22.80;;;;;;;;;;5092080;28;20105;-74
2023/10/19 09:12:27;;;;;;;50.60;23.52;;;;;;;;;;5073970;28;20044;-76
2023/10/19 09:14:53;;;;;;;40.50;22.95;;;;;;;;;;5092078;28;20123;-73
2023/10/19 09:17:29;;;;;;;38.53;22.98;;;;;;;;;;5092400;28;20494;-74
2023/10/19 09:19:56;;;;;;;43.80;22.80;;;;;;;;;;5094263;28;20020;-75
2023/10/19 09:22:25;;;;;;;39.58;22.00;;;;;;;;;;5093884;28;20020;-74
2023/10/19 09:24:53;;;;;;;45.05;22.35;;;;;;;;;;5092765;28;20036;-74
2023/10/19 09:27:20;;;;;;;41.15;23.30;;;;;;;;;;5092048;28;20023;-74
2023/10/19 09:29:46;;;;;;;43.20;22.05;;;;;;;;;;5091360;28;20027;-76
2023/10/19 09:32:15;;;;;;;41.08;23.95;;;;;;;;;;5092806;28;20115;-76
2023/10/19 09:34:43;;;;;;;46.08;23.35;;;;;;;;;;5075230;28;20028;-78
2023/10/19 09:37:09;;;;;;;41.13;23.98;;;;;;;;;;5098146;28;20020;-78
2023/10/19 09:39:35;;;;;;;41.53;23.30;;;;;;;;;;5093052;28;20020;-77
2023/10/19 09:42:16;;;;;;;41.22;24.33;;;;;;;;;;5094738;28;20024;-77
2023/10/19 09:44:43;;;;;;;45.22;23.33;;;;;;;;;;5091900;28;20107;-73
2023/10/19 09:47:13;;;;;;;45.33;23.90;;;;;;;;;;5091650;28;20024;-73
2023/10/19 09:49:42;;;;;;;41.40;23.83;;;;;;;;;;5091464;28;20028;-73
2023/10/19 09:52:09;;;;;;;47.85;24.35;;;;;;;;;;5091805;28;20023;-74
2023/10/19 09:54:47;;;;;;;42.30;24.27;;;;;;;;;;5091663;28;20051;-74
2023/10/19 09:57:16;;;;;;;44.95;22.30;;;;;;;;;;5091364;28;20024;-74
2023/10/19 09:59:44;;;;;;;42.03;22.88;;;;;;;;;;5092848;28;20024;-73
2023/10/19 10:02:13;;;;;;;43.60;22.33;;;;;;;;;;5095100;28;20085;-74
2023/10/19 10:04:40;;;;;;;42.70;22.27;;;;;;;;;;5095317;28;20024;-75
2023/10/19 10:07:07;;;;;;;39.92;23.45;;;;;;;;;;5096280;28;20483;-75
2023/10/19 10:09:43;;;;;;;43.28;22.60;;;;;;;;;;5096484;28;20032;-73
2023/10/19 10:12:21;;;;;;;36.10;22.33;;;;;;;;;;5096908;28;20106;-73
2023/10/19 10:15:07;;;;;;;40.63;22.50;;;;;;;;;;5098728;28;20081;-74
2023/10/19 10:17:42;;;;;;;39.58;22.13;;;;;;;;;;5077567;28;20112;-73
2023/10/19 10:20:11;;;;;;;39.50;21.38;;;;;;;;;;5094986;28;20085;-73
2023/10/19 10:22:37;;;;;;;39.20;21.92;;;;;;;;;;5095340;28;20028;-73
2023/10/19 10:25:04;;;;;;;36.40;21.77;;;;;;;;;;5095711;28;20032;-73
2023/10/19 10:27:30;;;;;;;33.03;19.85;;;;;;;;;;5095596;28;20094;-74
2023/10/19 10:29:56;;;;;;;39.25;20.23;;;;;;;;;;5094490;28;20471;-73
2023/10/19 10:32:41;;;;;;;35.42;20.58;;;;;;;;;;5095098;28;20547;-72
2023/10/19 10:35:07;;;;;;;35.60;21.80;;;;;;;;;;5094580;28;20028;-73
2023/10/19 10:37:37;;;;;;;38.33;20.65;;;;;;;;;;5076104;28;20028;-73
2023/10/19 10:40:05;;;;;;;34.22;20.05;;;;;;;;;;5095317;28;20073;-74
2023/10/19 10:42:31;;;;;;;30.15;19.25;;;;;;;;;;5077708;28;20016;-76
2023/10/19 10:44:58;;;;;;;35.05;19.30;;;;;;;;;;5094318;28;20020;-74
2023/10/19 10:47:29;;;;;;;32.55;19.65;;;;;;;;;;5094392;28;20043;-73
2023/10/19 10:49:57;;;;;;;38.13;19.55;;;;;;;;;;5094316;28;20028;-73
2023/10/19 10:52:30;;;;;;;35.47;19.52;;;;;;;;;;5097851;28;20024;-74
2023/10/19 10:54:59;;;;;;;34.28;19.25;;;;;;;;;;5094950;28;20043;-73
2023/10/19 10:57:32;;;;;;;33.90;19.33;;;;;;;;;;5100123;28;20074;-73
2023/10/19 11:00:04;;;;;;;32.17;19.27;;;;;;;;;;5100837;28;20069;-76
2023/10/19 11:02:30;;;;;;;35.35;19.88;;;;;;;;;;5102133;28;20502;-77
2023/10/19 11:04:56;;;;;;;31.23;18.65;;;;;;;;;;5096378;28;20021;-75
2023/10/19 11:07:22;;;;;;;36.53;19.48;;;;;;;;;;5100882;28;20523;-75
2023/10/19 11:09:48;;;;;;;35.80;19.92;;;;;;;;;;5095694;28;20479;-73
2023/10/19 11:12:19;;;;;;;34.78;20.45;;;;;;;;;;5094162;28;20024;-74
2023/10/19 11:14:59;;;;;;;37.80;21.50;;;;;;;;;;5094147;28;20444;-74
2023/10/19 11:17:32;;;;;;;31.98;19.67;;;;;;;;;;5093933;28;20024;-74
2023/10/19 11:19:58;;;;;;;39.75;20.35;;;;;;;;;;5094847;28;20024;-73
2023/10/19 11:22:24;;;;;;;31.30;18.45;;;;;;;;;;5094538;28;20022;-77
2023/10/19 11:24:52;;;;;;;35.08;19.55;;;;;;;;;;5095859;28;20029;-75
2023/10/19 11:27:26;;;;;;;31.73;19.67;;;;;;;;;;5095389;28;20103;-77
2023/10/19 11:29:59;;;;;;;32.47;19.40;;;;;;;;;;5094778;28;20020;-73
2023/10/19 11:32:25;;;;;;;41.03;20.23;;;;;;;;;;5094504;28;20044;-73
2023/10/19 11:34:53;;;;;;;35.35;20.73;;;;;;;;;;5095005;28;20024;-74
2023/10/19 11:37:19;;;;;;;33.83;20.38;;;;;;;;;;5094744;28;20467;-74
2023/10/19 11:39:45;;;;;;;33.22;19.75;;;;;;;;;;5075980;28;20395;-75
2023/10/19 11:42:12;;;;;;;31.63;20.38;;;;;;;;;;5094353;28;20025;-74
2023/10/19 11:44:39;;;;;;;34.53;19.73;;;;;;;;;;5095527;28;20095;-74
2023/10/19 11:47:05;;;;;;;33.55;20.75;;;;;;;;;;5093553;28;20024;-74
2023/10/19 11:49:31;;;;;;;33.22;19.45;;;;;;;;;;5093215;28;20035;-73
2023/10/19 11:51:57;;;;;;;34.45;20.42;;;;;;;;;;5094231;28;20032;-75
2023/10/19 11:54:23;;;;;;;35.83;20.10;;;;;;;;;;5093395;28;20066;-75
2023/10/19 11:56:49;;;;;;;39.40;21.13;;;;;;;;;;5093126;28;20028;-74
2023/10/19 11:59:15;;;;;;;33.70;19.63;;;;;;;;;;5093066;28;20024;-73
2023/10/19 12:01:42;;;;;;;33.13;20.48;;;;;;;;;;5092858;28;20408;-74
2023/10/19 12:04:09;;;;;;;34.47;19.92;;;;;;;;;;5092422;28;20120;-73
2023/10/19 12:06:35;;;;;;;35.47;20.13;;;;;;;;;;5093218;28;20398;-74
2023/10/19 12:09:14;;;;;;;31.52;19.50;;;;;;;;;;5093220;28;20024;-75
2023/10/19 12:11:40;;;;;;;37.08;19.48;;;;;;;;;;5095755;28;20625;-74
2023/10/19 12:14:11;;;;;;;35.72;19.90;;;;;;;;;;5092811;28;20051;-74
2023/10/19 12:16:39;;;;;;;32.67;18.52;;;;;;;;;;5092724;28;20444;-74
2023/10/19 12:19:05;;;;;;;35.03;20.67;;;;;;;;;;5092692;28;20043;-74
2023/10/19 12:21:31;;;;;;;37.40;19.63;;;;;;;;;;5092203;28;20394;-75
2023/10/19 12:23:59;;;;;;;34.47;19.67;;;;;;;;;;5091965;28;20020;-74
2023/10/19 12:26:25;;;;;;;31.77;18.95;;;;;;;;;;5093006;28;20020;-73
2023/10/19 12:28:51;;;;;;;32.35;19.25;;;;;;;;;;5093415;28;20487;-75
2023/10/19 12:31:22;;;;;;;36.28;19.20;;;;;;;;;;5092770;28;20365;-74
2023/10/19 12:33:48;;;;;;;29.73;19.08;;;;;;;;;;5092494;28;20020;-74
2023/10/19 12:36:32;;;;;;;31.00;17.92;;;;;;;;;;5092590;28;20445;-75
2023/10/19 12:38:58;;;;;;;35.17;18.48;;;;;;;;;;5092752;28;20023;-75
2023/10/19 12:41:24;;;;;;;30.48;18.73;;;;;;;;;;5092460;28;20057;-74
2023/10/19 12:43:57;;;;;;;31.45;18.77;;;;;;;;;;5092577;28;20024;-75
2023/10/19 12:46:24;;;;;;;30.38;18.13;;;;;;;;;;5092660;28;20065;-77
2023/10/19 12:48:51;;;;;;;38.42;19.95;;;;;;;;;;5081086;28;20081;-75
2023/10/19 12:51:23;;;;;;;35.67;19.23;;;;;;;;;;5095746;28;20024;-74
2023/10/19 12:53:51;;;;;;;33.40;19.80;;;;;;;;;;5094902;28;20020;-73
2023/10/19 12:56:17;;;;;;;36.10;19.58;;;;;;;;;;5088987;28;20475;-74
2023/10/19 12:58:43;;;;;;;35.75;19.33;;;;;;;;;;5094100;28;20529;-73
2023/10/19 13:01:16;;;;;;;35.53;18.73;;;;;;;;;;5093612;28;20012;-74
2023/10/19 13:03:45;;;;;;;37.08;21.33;;;;;;;;;;5089575;28;20076;-73
2023/10/19 13:06:11;;;;;;;33.40;18.58;;;;;;;;;;5090100;28;20050;-73
2023/10/19 13:08:40;;;;;;;34.53;20.10;;;;;;;;;;5091540;28;20028;-73
2023/10/19 13:11:06;;;;;;;32.15;19.13;;;;;;;;;;5083627;28;20498;-75
2023/10/19 13:13:32;;;;;;;40.45;20.33;;;;;;;;;;5087346;28;20399;-74
2023/10/19 13:15:59;;;;;;;37.05;19.92;;;;;;;;;;5091365;28;20020;-75
2023/10/19 13:18:29;;;;;;;35.67;19.75;;;;;;;;;;5091351;28;20509;-75
2023/10/19 13:20:56;;;;;;;30.60;19.17;;;;;;;;;;5082454;28;20027;-74
2023/10/19 13:23:22;;;;;;;39.08;21.20;;;;;;;;;;5087770;28;20487;-73
2023/10/19 13:28:18;;;;;;;33.40;19.73;;;;;;;;;;5096674;28;20410;-74
2023/10/19 13:30:48;;;;;;;36.28;20.42;;;;;;;;;;5087464;28;20024;-74
2023/10/19 13:33:14;;;;;;;37.00;21.08;;;;;;;;;;5089046;28;20032;-78
2023/10/19 13:35:42;;;;;;;41.30;19.73;;;;;;;;;;5095102;28;20111;-74
2023/10/19 13:38:08;;;;;;;37.58;20.83;;;;;;;;;;5098087;28;20458;-74
2023/10/19 13:40:35;;;;;;;38.75;19.75;;;;;;;;;;5078577;28;20374;-73
2023/10/19 13:43:04;;;;;;;38.58;20.88;;;;;;;;;;5097232;28;20065;-74
2023/10/19 13:45:32;;;;;;;34.13;19.85;;;;;;;;;;5095281;28;20414;-76
2023/10/19 13:47:58;;;;;;;31.45;19.33;;;;;;;;;;5095482;28;20031;-75
2023/10/19 13:50:26;;;;;;;37.85;19.00;;;;;;;;;;5095502;28;20520;-74
2023/10/19 13:52:52;;;;;;;42.45;21.80;;;;;;;;;;5097010;28;20505;-75
2023/10/19 13:55:20;;;;;;;32.80;19.17;;;;;;;;;;5090574;28;20074;-76
2023/10/19 13:57:46;;;;;;;36.25;19.58;;;;;;;;;;5104840;28;20024;-77
2023/10/19 14:00:19;;;;;;;37.22;20.83;;;;;;;;;;5101737;28;20030;-77
2023/10/19 14:02:46;;;;;;;36.75;20.10;;;;;;;;;;5108120;28;20058;-76
2023/10/19 14:05:13;;;;;;;41.92;21.50;;;;;;;;;;5118388;28;20016;-73
2023/10/19 14:07:39;;;;;;;37.22;20.60;;;;;;;;;;5115647;28;20028;-74
2023/10/19 14:10:06;;;;;;;36.10;18.13;;;;;;;;;;5115207;28;20149;-73
2023/10/19 14:12:33;;;;;;;37.42;19.67;;;;;;;;;;5115374;28;20235;-74
2023/10/19 14:14:59;;;;;;;32.25;19.98;;;;;;;;;;5116223;28;20394;-74
2023/10/19 14:17:25;;;;;;;38.75;19.27;;;;;;;;;;5116001;28;20467;-76
2023/10/19 14:19:51;;;;;;;36.33;19.10;;;;;;;;;;5115621;28;20026;-75
2023/10/19 14:22:17;;;;;;;35.88;19.00;;;;;;;;;;5117728;28;20023;-76
2023/10/19 14:24:44;;;;;;;30.25;17.95;;;;;;;;;;5116781;28;20020;-77
2023/10/19 14:27:11;;;;;;;38.72;18.60;;;;;;;;;;5116158;28;20031;-75
2023/10/19 14:29:37;;;;;;;31.85;18.02;;;;;;;;;;5115279;28;20020;-74
2023/10/19 14:32:03;;;;;;;34.03;19.75;;;;;;;;;;5116074;28;20039;-74
2023/10/19 14:34:29;;;;;;;35.47;19.85;;;;;;;;;;5115985;28;20028;-72
2023/10/19 14:36:56;;;;;;;34.22;19.80;;;;;;;;;;5115469;28;20020;-74
2023/10/19 14:39:23;;;;;;;30.65;18.33;;;;;;;;;;5115545;28;20020;-74
2023/10/19 14:41:50;;;;;;;33.70;18.08;;;;;;;;;;5114877;28;20108;-73
2023/10/19 14:44:16;;;;;;;38.10;19.33;;;;;;;;;;5114784;28;20471;-73
2023/10/19 14:46:41;;;;;;;31.02;18.23;;;;;;;;;;5113567;28;20080;-73